Time;durP1;ratioP1;P1;durP2;ratioP2;P2;SDS_P1;SDS_P2;PMS_P1;PMS_P2;Temp;Humidity;BMP_temperature;BMP_pressure;BME280_temperature;BME280_humidity;BME280_pressure;Samples;Min_cycle;Max_cycle;Signal;HPM_P1;HPM_P2
2023/06/24 00:00:11;;;;;;;6.90;3.20;;;;;;;18.68;81.67;100594.56;5006039;28;20311;-57
2023/06/24 00:02:43;;;;;;;12.03;3.50;;;;;;;18.84;78.31;100594.75;4996493;28;20277;-58
2023/06/24 00:05:14;;;;;;;18.17;3.70;;;;;;;18.88;78.25;100584.88;5006064;28;20365;-57
2023/06/24 00:07:45;;;;;;;22.30;4.40;;;;;;;19.08;77.68;100592.78;4995607;28;20292;-58
2023/06/24 00:10:17;;;;;;;16.13;3.77;;;;;;;18.98;76.81;100585.34;5005129;28;20299;-58
2023/06/24 00:12:48;;;;;;;13.83;3.93;;;;;;;19.08;75.93;100591.91;5004529;28;21052;-57
2023/06/24 00:15:19;;;;;;;10.20;3.77;;;;;;;19.26;77.13;100596.34;5011378;28;20774;-58
2023/06/24 00:17:50;;;;;;;15.40;3.40;;;;;;;19.50;78.07;100578.44;5014727;28;20314;-58
2023/06/24 00:20:20;;;;;;;15.83;3.33;;;;;;;19.66;76.30;100594.44;5025336;28;20390;-58
2023/06/24 00:22:51;;;;;;;15.53;4.00;;;;;;;19.70;74.49;100582.78;5015098;28;20821;-57
2023/06/24 00:25:26;;;;;;;22.20;3.90;;;;;;;19.55;73.97;100570.25;5025160;28;20289;-58
2023/06/24 00:27:56;;;;;;;9.43;3.10;;;;;;;19.81;74.99;100577.78;5014662;28;21101;-57
2023/06/24 00:30:29;;;;;;;14.60;3.73;;;;;;;20.09;74.01;100581.72;5037668;28;20305;-59
2023/06/24 00:33:16;;;;;;;12.70;3.30;;;;;;;20.55;73.88;100575.88;5037445;28;21183;-57
2023/06/24 00:36:00;;;;;;;;;;;;;;;20.61;70.93;100581.69;5050464;28;20309;-58
2023/06/24 00:38:32;;;;;;;14.68;3.90;;;;;;;20.74;71.03;100573.06;5044873;28;19971;-58
2023/06/24 00:41:04;;;;;;;11.23;3.30;;;;;;;21.05;70.91;100577.59;5034734;28;20059;-57
2023/06/24 00:43:35;;;;;;;10.53;3.37;;;;;;;21.29;69.26;100570.03;5035471;28;21051;-57
2023/06/24 00:46:45;;;;;;;13.67;3.77;;;;;;;21.25;67.00;100571.16;5032527;28;20414;-56
2023/06/24 00:50:30;;;;;;;6.67;3.27;;;;;;;21.25;64.96;100571.16;5029564;28;20479;-58
2023/06/24 00:53:11;;;;;;;12.43;3.60;;;;;;;21.48;67.50;100570.75;5029291;28;20736;-58
2023/06/24 00:55:55;;;;;;;14.30;3.67;;;;;;;21.27;67.29;100470.97;5028828;28;20354;-58
2023/06/24 00:58:41;;;;;;;19.67;3.90;;;;;;;22.04;65.11;100562.22;5030056;28;20317;-55
2023/06/24 01:01:12;;;;;;;18.17;4.70;;;;;;;21.82;64.41;100547.53;5040120;28;20294;-56
2023/06/24 01:03:44;;;;;;;17.33;3.83;;;;;;;21.87;65.99;100550.78;5029661;28;20817;-57
2023/06/24 01:06:16;;;;;;;18.13;3.73;;;;;;;21.98;64.76;100551.00;5039490;28;20362;-58
2023/06/24 01:08:50;;;;;;;17.80;4.13;;;;;;;22.20;65.16;100539.09;5029579;28;20291;-58
2023/06/24 01:11:22;;;;;;;12.23;3.70;;;;;;;22.54;65.54;100545.00;5039322;28;20463;-55
2023/06/24 01:13:56;;;;;;;17.93;3.43;;;;;;;22.76;63.98;100545.38;5029384;28;20372;-56
2023/06/24 01:16:35;;;;;;;11.93;3.77;;;;;;;22.99;63.42;100546.66;5039023;28;20072;-55
2023/06/24 01:19:24;;;;;;;12.77;3.63;;;;;;;22.97;60.38;100526.34;5028777;28;20135;-55
2023/06/24 01:22:11;;;;;;;17.13;3.83;;;;;;;23.12;59.86;100545.88;5029389;28;20446;-59
2023/06/24 01:25:04;;;;;;;11.77;3.67;;;;;;;23.30;57.78;100538.47;5028998;28;20044;-55
2023/06/24 01:28:03;;;;;;;9.43;2.90;;;;;;;23.42;54.31;100532.34;5032274;28;20044;-59
2023/06/24 01:31:10;;;;;;;7.77;2.80;;;;;;;23.29;54.98;100531.41;5029781;28;20547;-58
2023/06/24 01:33:49;;;;;;;8.90;3.50;;;;;;;23.11;57.55;100465.03;5018661;28;20076;-57
2023/06/24 01:36:22;;;;;;;8.70;2.77;;;;;;;23.48;53.68;100531.94;5039308;28;20455;-57
2023/06/24 01:39:00;;;;;;;5.63;2.70;;;;;;;23.62;53.07;100529.22;5029752;28;20462;-58
2023/06/24 01:41:36;;;;;;;12.23;3.37;;;;;;;23.56;53.61;100524.25;5039464;28;20083;-57
2023/06/24 01:44:10;;;;;;;7.50;3.07;;;;;;;23.46;54.15;100524.06;5009648;28;20084;-57
2023/06/24 01:46:43;;;;;;;26.97;4.23;;;;;;;23.65;56.81;100517.47;5009574;28;20055;-57
2023/06/24 01:49:18;;;;;;;9.70;3.43;;;;;;;23.95;56.70;100519.91;5020481;28;20172;-57
2023/06/24 01:51:50;;;;;;;11.90;4.30;;;;;;;24.13;58.80;100527.63;5010189;28;20151;-57
2023/06/24 01:54:24;;;;;;;13.63;4.13;;;;;;;24.27;58.00;100531.06;5019873;28;20045;-57
2023/06/24 01:56:59;;;;;;;9.57;3.37;;;;;;;24.44;56.61;100521.88;5009034;28;20123;-57
2023/06/24 01:59:32;;;;;;;9.47;3.33;;;;;;;24.27;53.31;100530.19;5020057;28;20078;-57
2023/06/24 02:02:06;;;;;;;10.20;3.60;;;;;;;24.02;53.89;100518.53;5020535;28;20054;-56
2023/06/24 02:04:41;;;;;;;16.27;3.63;;;;;;;23.85;53.01;100524.16;5028095;28;20474;-58
2023/06/24 02:07:15;;;;;;;11.00;3.87;;;;;;;24.08;55.67;100511.91;5038919;28;20066;-57
2023/06/24 02:09:48;;;;;;;13.60;3.10;;;;;;;24.33;56.91;100487.03;5028242;28;20084;-57
2023/06/24 02:12:21;;;;;;;13.30;4.30;;;;;;;24.84;55.13;100507.53;5038669;28;20041;-58
2023/06/24 02:14:54;;;;;;;8.90;3.43;;;;;;;25.11;53.11;100507.31;5028564;28;20106;-56
2023/06/24 02:17:29;;;;;;;10.33;3.57;;;;;;;25.25;53.08;100507.19;5039200;28;20056;-58
2023/06/24 02:20:03;;;;;;;8.53;3.63;;;;;;;25.49;53.26;100498.31;5028138;28;20082;-57
2023/06/24 02:22:36;;;;;;;7.70;3.10;;;;;;;25.71;50.96;100508.22;5029033;28;20041;-56
2023/06/24 02:25:09;;;;;;;6.37;3.30;;;;;;;25.66;49.92;100500.56;5037689;28;20079;-58
2023/06/24 02:27:41;;;;;;;6.30;3.37;;;;;;;25.82;49.43;100508.28;5028268;28;20565;-58
2023/06/24 02:30:15;;;;;;;7.40;3.53;;;;;;;25.77;48.26;100492.56;5038594;28;20534;-57
2023/06/24 02:32:47;;;;;;;9.90;2.97;;;;;;;25.59;47.46;100510.03;5026411;28;20471;-58
2023/06/24 02:35:21;;;;;;;7.90;3.10;;;;;;;25.59;51.70;100456.50;5038145;28;20913;-58
2023/06/24 02:37:53;;;;;;;6.70;2.50;;;;;;;25.71;46.99;100503.75;5028056;28;20113;-59
2023/06/24 02:40:24;;;;;;;7.07;2.80;;;;;;;25.81;49.47;100496.72;5037582;28;20126;-57
2023/06/24 02:42:56;;;;;;;9.83;3.00;;;;;;;25.98;50.28;100490.06;5028387;28;20666;-59
2023/06/24 02:45:29;;;;;;;7.63;2.90;;;;;;;25.62;50.92;100402.75;5038327;28;20161;-57
2023/06/24 02:48:02;;;;;;;9.67;2.73;;;;;;;26.19;50.27;100476.88;5027897;28;20060;-57
2023/06/24 02:50:37;;;;;;;9.40;3.00;;;;;;;26.45;49.79;100488.19;5039286;28;20056;-58
2023/06/24 02:53:10;;;;;;;5.90;2.53;;;;;;;26.57;48.62;100491.75;5028122;28;20053;-57
2023/06/24 02:55:43;;;;;;;6.37;3.03;;;;;;;26.70;49.31;100485.41;5028124;28;20084;-57
2023/06/24 02:58:15;;;;;;;11.50;2.60;;;;;;;26.67;48.70;100465.91;5039217;28;20044;-57
2023/06/24 03:00:49;;;;;;;7.70;2.50;;;;;;;26.79;48.04;100473.97;5031341;28;20507;-58
2023/06/24 03:03:22;;;;;;;7.43;2.43;;;;;;;26.85;45.99;100479.66;5042112;28;20083;-56
2023/06/24 03:05:56;;;;;;;5.33;2.23;;;;;;;26.79;44.29;100480.16;5032183;28;20113;-56
2023/06/24 03:08:29;;;;;;;4.27;2.63;;;;;;;26.64;45.18;100466.16;5037499;28;20056;-57
2023/06/24 03:11:00;;;;;;;10.80;2.47;;;;;;;26.84;47.62;100482.47;5030888;28;20156;-57
2023/06/24 03:13:32;;;;;;;3.50;2.00;;;;;;;26.92;46.55;100484.53;5041718;28;20086;-58
2023/06/24 03:16:04;;;;;;;4.03;2.20;;;;;;;26.92;46.38;100482.69;5030831;28;20052;-57
2023/06/24 03:18:36;;;;;;;6.10;3.03;;;;;;;26.76;45.84;100476.84;5032154;28;20098;-58
2023/06/24 03:21:09;;;;;;;6.37;2.87;;;;;;;26.91;46.86;100478.31;5038780;28;20771;-58
2023/06/24 03:23:45;;;;;;;5.67;2.50;;;;;;;26.78;45.86;100488.31;5030900;28;20080;-57
2023/06/24 03:26:21;;;;;;;4.83;2.60;;;;;;;26.79;46.24;100480.16;5039465;28;20076;-58
2023/06/24 03:28:52;;;;;;;12.20;3.07;;;;;;;26.87;46.13;100476.84;5027424;28;20056;-57
2023/06/24 03:31:23;;;;;;;10.07;2.93;;;;;;;26.99;46.93;100475.00;5038890;28;20052;-59
2023/06/24 03:33:55;;;;;;;7.63;3.07;;;;;;;26.89;46.80;100464.19;5030723;28;21239;-56
2023/06/24 03:36:28;;;;;;;8.83;3.40;;;;;;;27.06;47.86;100468.16;5041316;28;20076;-57
2023/06/24 03:38:58;;;;;;;10.53;3.80;;;;;;;27.17;48.73;100483.38;5030862;28;20143;-58
2023/06/24 03:41:29;;;;;;;10.83;3.70;;;;;;;27.29;48.42;100466.28;5041536;28;20056;-56
2023/06/24 03:43:59;;;;;;;9.97;3.77;;;;;;;27.19;46.56;100460.00;5030878;28;20044;-58
2023/06/24 03:46:32;;;;;;;9.60;3.70;;;;;;;27.30;46.29;100470.66;5041046;28;20081;-57
2023/06/24 03:49:03;;;;;;;11.70;3.30;;;;;;;27.28;45.94;100476.16;5030563;28;20060;-57
2023/06/24 03:51:35;;;;;;;9.37;3.47;;;;;;;27.27;46.88;100462.88;5036772;28;20048;-56
2023/06/24 03:54:07;;;;;;;8.30;3.17;;;;;;;27.36;47.81;100461.25;5040062;28;20062;-58
2023/06/24 03:56:38;;;;;;;18.80;3.97;;;;;;;27.39;47.89;100472.59;5030828;28;20076;-57
2023/06/24 03:59:09;;;;;;;6.40;3.60;;;;;;;27.46;47.78;100468.41;5040564;28;20103;-56
2023/06/24 04:01:39;;;;;;;8.43;3.60;;;;;;;27.44;47.75;100475.72;5030324;28;20385;-59
2023/06/24 04:04:13;;;;;;;11.20;3.23;;;;;;;27.46;48.07;100478.31;5040828;28;20656;-57
2023/06/24 04:06:45;;;;;;;11.57;3.43;;;;;;;27.40;47.78;100474.28;5030103;28;20126;-59
2023/06/24 04:09:17;;;;;;;6.00;3.20;;;;;;;27.36;47.74;100467.47;5040139;28;20052;-57
2023/06/24 04:11:48;;;;;;;13.47;3.37;;;;;;;27.36;47.11;100472.84;5030864;28;20127;-57
2023/06/24 04:14:19;;;;;;;8.13;3.53;;;;;;;27.38;48.29;100470.88;5039155;28;20076;-58
2023/06/24 04:16:50;;;;;;;7.73;3.40;;;;;;;27.30;47.91;100473.34;5028804;28;20041;-63
2023/06/24 04:19:20;;;;;;;14.20;3.30;;;;;;;27.14;47.92;100472.91;5038522;28;20055;-58
2023/06/24 04:21:53;;;;;;;8.47;3.63;;;;;;;26.99;47.76;100478.53;5029790;28;20071;-59
2023/06/24 04:24:23;;;;;;;15.97;3.90;;;;;;;26.89;49.28;100469.53;5039407;28;20048;-59
2023/06/24 04:26:56;;;;;;;14.67;4.23;;;;;;;26.86;49.28;100467.13;5029572;28;20079;-57
2023/06/24 04:29:27;;;;;;;13.33;4.23;;;;;;;26.82;48.34;100471.88;5040106;28;20084;-60
2023/06/24 04:31:58;;;;;;;11.13;3.70;;;;;;;26.63;49.37;100469.84;5029408;28;20105;-59
2023/06/24 04:34:29;;;;;;;9.23;3.53;;;;;;;26.45;49.81;100471.25;5039260;28;20056;-58
2023/06/24 04:37:01;;;;;;;9.30;4.03;;;;;;;26.45;49.92;100471.25;5009256;28;20144;-59
2023/06/24 04:39:32;;;;;;;15.60;3.50;;;;;;;26.17;50.13;100476.13;5019551;28;20063;-59
2023/06/24 04:42:03;;;;;;;13.00;3.87;;;;;;;26.25;51.02;100476.38;5021531;28;20049;-58
2023/06/24 04:44:34;;;;;;;12.43;4.00;;;;;;;26.25;50.58;100465.66;5037919;28;20058;-61
2023/06/24 04:47:05;;;;;;;17.17;4.40;;;;;;;26.13;51.18;100439.84;5038607;28;20058;-60
2023/06/24 04:49:36;;;;;;;16.67;4.93;;;;;;;26.24;50.39;100468.47;5028766;28;20110;-57
2023/06/24 04:52:09;;;;;;;13.37;3.83;;;;;;;26.15;50.50;100470.03;5038379;28;20053;-58
2023/06/24 04:54:40;;;;;;;12.87;3.67;;;;;;;25.92;50.42;100463.78;5028405;28;20697;-60
2023/06/24 04:57:24;;;;;;;15.73;3.83;;;;;;;25.95;50.30;100470.75;5038661;28;20048;-60
2023/06/24 04:59:54;;;;;;;10.93;3.47;;;;;;;26.12;50.77;100464.06;5028551;28;20058;-57
2023/06/24 05:02:25;;;;;;;11.23;3.73;;;;;;;26.11;50.40;100462.34;5039046;28;20048;-58
2023/06/24 05:04:56;;;;;;;15.07;3.83;;;;;;;25.98;49.93;100452.59;5028215;28;20557;-59
2023/06/24 05:08:14;;;;;;;8.10;3.70;;;;;;;25.91;49.87;100461.22;5038055;28;20040;-60
2023/06/24 05:10:55;;;;;;;20.30;3.60;;;;;;;25.75;50.34;100462.38;5026594;28;20054;-59
2023/06/24 05:13:27;;;;;;;8.80;3.27;;;;;;;25.70;50.78;100469.06;5038824;28;20131;-60
2023/06/24 05:15:58;;;;;;;6.27;3.67;;;;;;;25.69;50.98;100464.69;5028304;28;20083;-59
2023/06/24 05:18:30;;;;;;;15.00;3.97;;;;;;;25.65;50.65;100472.09;5038873;28;20063;-60
2023/06/24 05:21:02;;;;;;;9.80;3.80;;;;;;;25.52;50.77;100466.81;5016465;28;20128;-60
2023/06/24 05:23:35;;;;;;;18.23;4.33;;;;;;;25.48;51.14;100469.84;5019791;28;20511;-58
2023/06/24 05:26:07;;;;;;;14.80;3.80;;;;;;;25.21;50.95;100444.22;5013944;28;20075;-59
2023/06/24 05:28:39;;;;;;;13.57;3.93;;;;;;;25.45;50.29;100475.44;5027973;28;20059;-59
2023/06/24 05:31:11;;;;;;;7.37;3.47;;;;;;;25.28;49.84;100461.50;5038538;28;20063;-59
2023/06/24 05:33:42;;;;;;;10.83;3.50;;;;;;;25.26;50.13;100465.25;5027842;28;20044;-58
2023/06/24 05:36:14;;;;;;;10.33;3.20;;;;;;;25.12;49.39;100442.19;5038306;28;20052;-59
2023/06/24 05:38:48;;;;;;;11.30;3.33;;;;;;;25.26;49.38;100471.47;5028512;28;20049;-60
2023/06/24 05:41:22;;;;;;;12.43;3.37;;;;;;;25.28;50.27;100469.50;5016810;28;20072;-58
2023/06/24 05:44:04;;;;;;;9.60;3.33;;;;;;;25.22;50.05;100453.94;5024809;28;20048;-58
2023/06/24 05:46:35;;;;;;;8.50;3.37;;;;;;;25.12;50.33;100437.69;5029811;28;20052;-61
2023/06/24 05:49:06;;;;;;;12.33;3.30;;;;;;;25.28;47.62;100469.50;5038310;28;20044;-58
2023/06/24 05:51:37;;;;;;;10.87;3.50;;;;;;;25.14;47.37;100472.34;5027290;28;20059;-59
2023/06/24 05:54:09;;;;;;;9.07;3.63;;;;;;;24.93;48.14;100472.09;5038140;28;20066;-60
2023/06/24 05:56:40;;;;;;;14.47;3.87;;;;;;;24.80;50.08;100464.13;5028045;28;20060;-58
2023/06/24 05:59:14;;;;;;;15.40;3.87;;;;;;;24.78;50.25;100466.03;5038467;28;20060;-60
2023/06/24 06:01:45;;;;;;;12.07;3.53;;;;;;;24.78;49.39;100460.69;5028347;28;20036;-58
2023/06/24 06:04:16;;;;;;;8.87;3.77;;;;;;;24.88;49.18;100460.88;5038270;28;20072;-60
2023/06/24 06:06:47;;;;;;;11.73;3.40;;;;;;;24.93;49.41;100456.06;5027728;28;20044;-60
2023/06/24 06:09:19;;;;;;;9.87;2.93;;;;;;;24.83;49.34;100458.53;5037910;28;20053;-61
2023/06/24 06:11:50;;;;;;;9.83;2.93;;;;;;;24.79;48.83;100457.06;5027147;28;20151;-58
2023/06/24 06:14:22;;;;;;;8.07;2.63;;;;;;;24.76;48.70;100462.63;5036789;28;20056;-61
2023/06/24 06:16:54;;;;;;;8.80;3.03;;;;;;;24.63;48.47;100435.09;5027651;28;20053;-60
2023/06/24 06:19:26;;;;;;;9.47;2.50;;;;;;;24.69;47.90;100467.56;5037685;28;20052;-60
2023/06/24 06:21:57;;;;;;;18.87;3.17;;;;;;;24.61;47.85;100461.94;5027183;28;20070;-60
2023/06/24 06:24:30;;;;;;;14.07;3.03;;;;;;;24.53;48.73;100459.78;5038015;28;20044;-60
2023/06/24 06:27:15;;;;;;;8.63;2.30;;;;;;;24.44;48.41;100468.44;5004509;28;20057;-60
2023/06/24 06:29:47;;;;;;;7.03;2.10;;;;;;;24.38;48.34;100468.88;5026238;28;20076;-59
2023/06/24 06:32:19;;;;;;;17.67;2.80;;;;;;;24.25;48.57;100470.72;5037949;28;20147;-58
2023/06/24 06:34:51;;;;;;;11.53;2.60;;;;;;;24.16;48.74;100468.66;5030734;28;20464;-57
2023/06/24 06:37:38;;;;;;;6.60;2.43;;;;;;;24.05;50.88;100430.25;5041766;28;20548;-59
2023/06/24 06:40:31;;;;;;;8.27;2.47;;;;;;;24.35;51.32;100463.75;5015109;28;20078;-60
2023/06/24 06:43:30;;;;;;;14.23;3.37;;;;;;;24.31;50.84;100471.13;5030647;28;20132;-60
2023/06/24 06:46:10;;;;;;;10.50;2.63;;;;;;;24.34;52.53;100462.06;4988387;28;20487;-61
2023/06/24 06:48:46;;;;;;;5.73;2.37;;;;;;;24.37;51.48;100469.84;4988645;28;20053;-61
2023/06/24 06:51:24;;;;;;;11.53;3.00;;;;;;;24.35;51.67;100462.91;4998849;28;20045;-61
2023/06/24 06:53:56;;;;;;;;;;;;;;;24.29;51.63;100477.56;4989359;28;20059;-59
2023/06/24 06:56:32;;;;;;;5.40;2.23;;;;;;;24.23;51.68;100475.28;4999130;28;20027;-59
2023/06/24 06:59:03;;;;;;;4.87;2.30;;;;;;;24.19;50.82;100474.66;4988064;28;20064;-59
2023/06/24 07:01:35;;;;;;;6.30;2.07;;;;;;;24.07;51.26;100476.38;4993223;28;20492;-59
2023/06/24 07:04:07;;;;;;;8.53;1.93;;;;;;;24.04;51.75;100471.25;4999319;28;20107;-59
2023/06/24 07:06:38;;;;;;;4.73;2.00;;;;;;;24.02;51.30;100466.97;4988815;28;20092;-58
2023/06/24 07:09:12;;;;;;;7.20;2.23;;;;;;;23.87;50.75;100467.06;4998812;28;20060;-61
2023/06/24 07:11:48;;;;;;;5.67;1.77;;;;;;;23.66;51.78;100464.03;4988555;28;20132;-62
2023/06/24 07:14:20;;;;;;;6.73;1.90;;;;;;;23.60;51.46;100469.78;5001393;28;20388;-60
2023/06/24 07:16:51;;;;;;;10.57;2.63;;;;;;;23.65;51.59;100466.78;5008475;28;20343;-59
2023/06/24 07:19:23;;;;;;;8.50;2.40;;;;;;;23.66;50.65;100466.69;5018774;28;20052;-60
2023/06/24 07:21:56;;;;;;;5.13;2.00;;;;;;;23.55;49.96;100469.22;5008211;28;20073;-59
2023/06/24 07:24:28;;;;;;;5.90;2.00;;;;;;;23.51;49.76;100473.03;5040888;28;20052;-61
2023/06/24 07:27:01;;;;;;;6.67;2.23;;;;;;;23.50;50.74;100475.84;5031329;28;20048;-62
2023/06/24 07:29:35;;;;;;;7.07;2.30;;;;;;;23.47;51.42;100466.22;5036614;28;20047;-60
2023/06/24 07:32:08;;;;;;;4.80;2.13;;;;;;;23.53;50.67;100476.47;5041563;28;20662;-62
2023/06/24 07:34:39;;;;;;;4.93;1.90;;;;;;;23.55;49.89;100468.38;5031438;28;20454;-61
2023/06/24 07:37:10;;;;;;;7.67;2.10;;;;;;;;;;5041546;28;20125;-59
2023/06/24 07:39:54;;;;;;;8.13;2.30;;;;;;;23.66;50.47;100474.72;5030981;28;20045;-60
2023/06/24 07:42:27;;;;;;;7.77;2.10;;;;;;;23.58;49.51;100479.69;5041203;28;20494;-61
2023/06/24 07:45:00;;;;;;;5.23;1.80;;;;;;;23.38;49.00;100477.50;5030759;28;20113;-61
2023/06/24 07:47:38;;;;;;;10.27;2.17;;;;;;;23.22;50.21;100467.00;5042061;28;20048;-61
2023/06/24 07:50:12;;;;;;;8.83;2.40;;;;;;;23.27;50.78;100480.03;5031085;28;20060;-60
2023/06/24 07:52:44;;;;;;;5.77;2.60;;;;;;;23.14;51.31;100480.84;5031188;28;20056;-60
2023/06/24 07:55:16;;;;;;;11.80;2.70;;;;;;;23.12;51.86;100482.75;5041519;28;20765;-60
2023/06/24 07:57:50;;;;;;;10.17;2.57;;;;;;;23.04;51.44;100479.72;5030988;28;20068;-60
2023/06/24 08:00:21;;;;;;;8.43;2.47;;;;;;;22.97;51.42;100483.72;5041090;28;20864;-60
2023/06/24 08:02:53;;;;;;;8.30;2.30;;;;;;;22.79;52.23;100457.31;5031689;28;20056;-60
2023/06/24 08:05:25;;;;;;;11.17;2.30;;;;;;;23.00;51.75;100488.88;5041420;28;20076;-61
2023/06/24 08:07:57;;;;;;;6.87;2.37;;;;;;;22.96;51.94;100481.97;5031028;28;20181;-61
2023/06/24 08:10:28;;;;;;;7.77;2.47;;;;;;;23.01;51.92;100490.56;5040644;28;20072;-60
2023/06/24 08:13:04;;;;;;;10.07;2.30;;;;;;;23.02;52.73;100486.97;5030722;28;20056;-58
2023/06/24 08:15:37;;;;;;;10.80;2.63;;;;;;;23.01;51.87;100485.22;5030413;28;20049;-59
2023/06/24 08:18:11;;;;;;;7.37;2.57;;;;;;;23.02;52.60;100489.63;5040486;28;20079;-58
2023/06/24 08:20:43;;;;;;;9.50;2.47;;;;;;;22.98;53.30;100490.78;5030796;28;20063;-58
2023/06/24 08:23:15;;;;;;;14.87;2.70;;;;;;;23.06;53.29;100492.94;5040816;28;20041;-58
2023/06/24 08:25:47;;;;;;;7.17;2.50;;;;;;;22.91;52.24;100489.41;5030169;28;20044;-60
2023/06/24 08:28:26;;;;;;;4.50;2.83;;;;;;;22.77;52.70;100487.66;5040655;28;20082;-59
2023/06/24 08:31:02;;;;;;;16.57;2.90;;;;;;;22.68;53.71;100473.09;5029188;28;20044;-60
2023/06/24 08:33:39;;;;;;;5.93;2.50;;;;;;;22.55;52.77;100473.03;5030183;28;20048;-59
2023/06/24 08:36:16;;;;;;;11.57;2.50;;;;;;;22.27;52.93;100467.72;5040071;28;20056;-60
2023/06/24 08:38:51;;;;;;;7.07;2.33;;;;;;;22.13;53.49;100481.84;5029774;28;20052;-59
2023/06/24 08:41:28;;;;;;;7.67;2.63;;;;;;;22.01;53.76;100472.78;5027573;28;20133;-58
2023/06/24 08:44:10;;;;;;;4.95;2.15;;;;;;;21.95;54.03;100484.66;5021971;28;20048;-59
2023/06/24 08:46:46;;;;;;;9.70;2.53;;;;;;;21.84;54.79;100487.13;5029113;28;20044;-59
2023/06/24 08:49:27;;;;;;;8.20;2.80;;;;;;;21.79;55.60;100473.25;4989528;28;20057;-59
2023/06/24 08:52:07;;;;;;;17.33;2.80;;;;;;;21.79;56.79;100483.88;5028968;28;20139;-59
2023/06/24 08:54:44;;;;;;;12.20;2.73;;;;;;;21.75;57.33;100487.66;5029423;28;20055;-58
2023/06/24 08:57:16;;;;;;;6.40;2.67;;;;;;;21.47;57.81;100452.06;5039232;28;20133;-57
2023/06/24 08:59:51;;;;;;;14.00;2.80;;;;;;;21.71;57.82;100496.75;5030517;28;20135;-59
2023/06/24 09:02:23;;;;;;;8.10;3.30;;;;;;;21.64;58.38;100500.72;5040158;28;20179;-57
2023/06/24 09:04:55;;;;;;;14.57;2.77;;;;;;;21.52;58.18;100503.16;5029762;28;20049;-59
2023/06/24 09:07:29;;;;;;;14.23;2.57;;;;;;;21.40;58.13;100511.84;5039654;28;20052;-58
2023/06/24 09:10:02;;;;;;;15.27;2.70;;;;;;;21.37;58.29;100522.63;5028730;28;20138;-59
2023/06/24 09:12:37;;;;;;;13.70;2.80;;;;;;;21.28;58.15;100509.84;5039843;28;20070;-57
2023/06/24 09:15:17;;;;;;;13.43;3.03;;;;;;;20.78;58.38;100439.19;5028901;28;20045;-59
2023/06/24 09:17:48;;;;;;;11.77;3.27;;;;;;;21.01;58.43;100502.50;5029696;28;21035;-57
2023/06/24 09:20:23;;;;;;;3.47;2.50;;;;;;;20.83;58.85;100509.69;5039259;28;20336;-58
2023/06/24 09:22:59;;;;;;;14.40;2.80;;;;;;;20.86;58.47;100511.31;5029147;28;20280;-58
2023/06/24 09:25:31;;;;;;;10.53;3.10;;;;;;;20.75;58.18;100513.72;5039366;28;21170;-59
2023/06/24 09:28:04;;;;;;;8.70;2.60;;;;;;;20.56;58.17;100503.25;5028609;28;20676;-59
2023/06/24 09:30:38;;;;;;;8.33;2.80;;;;;;;20.42;58.81;100510.13;5029469;28;20286;-58
2023/06/24 09:33:14;;;;;;;7.93;2.67;;;;;;;20.16;59.23;100507.97;5038234;28;20282;-58
2023/06/24 09:35:46;;;;;;;9.87;2.80;;;;;;;19.93;60.11;100517.97;5028755;28;20823;-58
2023/06/24 09:38:34;;;;;;;24.33;3.67;;;;;;;19.40;60.96;100485.25;5038819;28;21159;-58
2023/06/24 09:41:06;;;;;;;5.85;2.63;;;;;;;19.49;61.48;100520.19;5015016;28;20842;-58
2023/06/24 09:43:45;;;;;;;8.30;3.07;;;;;;;19.26;62.60;100511.56;5010115;28;20170;-57
2023/06/24 09:46:18;;;;;;;13.17;3.40;;;;;;;19.25;63.01;100520.47;5019383;28;20289;-59
2023/06/24 09:48:50;;;;;;;9.20;2.97;;;;;;;19.21;63.41;100518.03;5009653;28;20390;-59
2023/06/24 09:51:22;;;;;;;7.07;3.10;;;;;;;19.11;64.00;100522.91;5019960;28;20283;-59
2023/06/24 09:53:57;;;;;;;15.80;3.20;;;;;;;19.06;64.59;100519.63;5009870;28;20307;-59
2023/06/24 09:56:29;;;;;;;13.57;3.83;;;;;;;19.14;65.17;100523.59;5019617;28;20368;-60
2023/06/24 09:59:01;;;;;;;17.87;3.40;;;;;;;19.15;65.74;100525.34;5009862;28;20286;-59
2023/06/24 10:01:37;;;;;;;19.80;4.10;;;;;;;18.98;65.83;100511.19;5019378;28;20306;-59
2023/06/24 10:04:10;;;;;;;8.10;3.13;;;;;;;18.56;66.27;100477.81;5019308;28;20278;-60
2023/06/24 10:06:41;;;;;;;22.33;4.20;;;;;;;18.64;67.05;100531.22;5011394;28;20276;-59
2023/06/24 10:09:16;;;;;;;13.13;3.40;;;;;;;18.16;68.42;100495.47;5019422;28;20390;-59
2023/06/24 10:11:49;;;;;;;12.10;3.50;;;;;;;18.11;69.49;100530.06;5009856;28;20295;-60
2023/06/24 10:14:22;;;;;;;7.20;3.30;;;;;;;17.85;70.63;100528.53;5022166;28;20371;-59
2023/06/24 10:17:04;;;;;;;21.30;3.93;;;;;;;17.65;71.65;100530.19;5028694;28;20961;-59
2023/06/24 10:19:41;;;;;;;10.33;3.63;;;;;;;17.50;72.21;100527.28;5030769;28;20290;-60
2023/06/24 10:22:14;;;;;;;8.20;3.53;;;;;;;17.37;72.74;100538.38;5038860;28;20279;-59
2023/06/24 10:24:49;;;;;;;12.33;4.13;;;;;;;17.19;73.75;100528.53;5029034;28;20283;-59
2023/06/24 10:27:22;;;;;;;11.03;3.93;;;;;;;17.10;74.59;100534.16;5039227;28;20275;-59
2023/06/24 10:29:58;;;;;;;15.60;4.73;;;;;;;17.01;74.92;100530.13;5029164;28;20286;-59
2023/06/24 10:32:43;;;;;;;12.20;4.10;;;;;;;16.91;75.96;100534.91;5039325;28;20291;-59
2023/06/24 10:35:29;;;;;;;9.57;4.17;;;;;;;16.84;77.18;100553.66;5029004;28;20294;-60
2023/06/24 10:38:02;;;;;;;5.63;3.70;;;;;;;16.65;78.01;100549.06;5028614;28;20348;-59
2023/06/24 10:40:39;;;;;;;13.30;4.10;;;;;;;16.23;78.86;100525.94;5039024;28;20290;-59
2023/06/24 10:43:31;;;;;;;9.37;4.03;;;;;;;16.38;79.81;100562.31;5029226;28;20298;-60
2023/06/24 10:46:03;;;;;;;15.07;4.00;;;;;;;16.30;80.42;100556.47;5027970;28;20286;-60
2023/06/24 10:48:39;;;;;;;6.97;3.83;;;;;;;16.21;80.77;100564.69;5034696;28;20307;-60
2023/06/24 10:51:11;;;;;;;12.70;5.30;;;;;;;16.09;81.40;100565.97;5038754;28;20286;-60
2023/06/24 10:53:43;;;;;;;7.63;4.57;;;;;;;16.00;82.42;100563.66;5029394;28;20354;-61
2023/06/24 10:56:15;;;;;;;9.40;4.60;;;;;;;15.94;82.63;100567.34;5038499;28;20791;-60
2023/06/24 10:58:58;;;;;;;8.17;4.27;;;;;;;15.94;83.08;100567.34;5028297;28;20294;-60
2023/06/24 11:01:30;;;;;;;9.70;4.73;;;;;;;15.83;83.09;100558.94;5038751;28;20298;-61
2023/06/24 11:04:08;;;;;;;10.80;4.93;;;;;;;15.80;83.68;100564.34;5028463;28;20723;-60
2023/06/24 11:06:42;;;;;;;12.23;4.93;;;;;;;15.80;83.97;100572.22;5028728;28;20761;-59
2023/06/24 11:09:16;;;;;;;8.80;5.10;;;;;;;15.74;84.25;100572.41;5038692;28;20726;-61
2023/06/24 11:11:49;;;;;;;13.47;4.90;;;;;;;15.65;84.74;100572.69;5029311;28;20326;-61
2023/06/24 11:14:24;;;;;;;13.23;5.23;;;;;;;15.57;85.29;100578.19;5038768;28;20317;-61
2023/06/24 11:16:56;;;;;;;11.63;5.60;;;;;;;15.48;85.75;100568.81;5028433;28;20318;-60
2023/06/24 11:19:32;;;;;;;11.97;5.30;;;;;;;15.51;86.19;100583.66;5039644;28;20298;-61
2023/06/24 11:22:06;;;;;;;12.63;5.50;;;;;;;15.31;86.42;100560.59;5031832;28;20293;-61
2023/06/24 11:24:39;;;;;;;13.83;4.97;;;;;;;15.43;86.72;100585.69;5032087;28;20283;-60
2023/06/24 11:27:14;;;;;;;16.80;5.83;;;;;;;15.34;86.87;100584.19;5041890;28;20275;-59
2023/06/24 11:29:47;;;;;;;13.53;5.30;;;;;;;15.25;87.22;100566.03;5032374;28;20291;-61
2023/06/24 11:32:23;;;;;;;11.10;5.37;;;;;;;15.29;87.84;100594.00;5041916;28;20275;-60
2023/06/24 11:34:58;;;;;;;14.07;5.67;;;;;;;15.28;88.09;100597.56;5031973;28;20299;-60
2023/06/24 11:37:35;;;;;;;14.77;5.60;;;;;;;15.26;88.20;100596.75;5041281;28;20369;-62
2023/06/24 11:40:11;;;;;;;13.17;5.10;;;;;;;15.12;88.44;100588.38;5031369;28;20350;-61
2023/06/24 11:42:47;;;;;;;8.53;5.20;;;;;;;14.34;88.80;100473.13;5031619;28;20772;-61
2023/06/24 11:45:24;;;;;;;10.33;5.23;;;;;;;14.95;89.50;100589.75;5041940;28;20336;-62
2023/06/24 11:48:08;;;;;;;11.57;4.80;;;;;;;14.91;89.82;100596.00;5031543;28;20352;-61
2023/06/24 11:50:44;;;;;;;9.37;5.03;;;;;;;14.90;90.09;100602.16;5032168;28;20299;-61
2023/06/24 11:53:17;;;;;;;9.13;5.20;;;;;;;14.89;90.21;100606.56;5041334;28;20934;-61
2023/06/24 11:56:00;;;;;;;11.43;4.90;;;;;;;14.83;90.55;100605.91;5031176;28;20901;-61